sensor_id;sensor_type;location;lat;lon;timestamp;pressure;altitude;pressure_sealevel;temperature;humidity
70072;BME280;57434;42.794;23.302;2022-11-20T00:01:16;94894.81;;;13.77;71.48
70072;BME280;57434;42.794;23.302;2022-11-20T00:03:44;95007.09;;;14.60;72.69
70072;BME280;57434;42.794;23.302;2022-11-20T00:06:16;95006.13;;;14.57;72.56
70072;BME280;57434;42.794;23.302;2022-11-20T00:08:45;95016.94;;;14.72;70.19
70072;BME280;57434;42.794;23.302;2022-11-20T00:11:17;94921.28;;;14.12;70.56
70072;BME280;57434;42.794;23.302;2022-11-20T00:13:45;94809.56;;;13.52;68.44
70072;BME280;57434;42.794;23.302;2022-11-20T00:16:15;94902.72;;;14.35;66.82
70072;BME280;57434;42.794;23.302;2022-11-20T00:18:43;94840.47;;;14.46;63.16
70072;BME280;57434;42.794;23.302;2022-11-20T00:21:12;94985.72;;;16.00;62.17
70072;BME280;57434;42.794;23.302;2022-11-20T00:23:39;94997.56;;;15.85;63.06
70072;BME280;57434;42.794;23.302;2022-11-20T00:26:09;94853.91;;;14.59;65.34
70072;BME280;57434;42.794;23.302;2022-11-20T00:28:36;94856.88;;;14.80;63.46
70072;BME280;57434;42.794;23.302;2022-11-20T00:31:07;94848.66;;;14.82;63.02
70072;BME280;57434;42.794;23.302;2022-11-20T00:33:35;94859.97;;;14.63;63.53
70072;BME280;57434;42.794;23.302;2022-11-20T00:36:06;94872.84;;;14.77;63.67
70072;BME280;57434;42.794;23.302;2022-11-20T00:38:33;95005.88;;;15.51;64.54
70072;BME280;57434;42.794;23.302;2022-11-20T00:41:02;94978.19;;;15.76;63.10
70072;BME280;57434;42.794;23.302;2022-11-20T00:43:30;94983.34;;;15.90;62.10
70072;BME280;57434;42.794;23.302;2022-11-20T00:45:58;94883.09;;;14.94;63.36
70072;BME280;57434;42.794;23.302;2022-11-20T00:48:25;94995.72;;;15.87;62.48
70072;BME280;57434;42.794;23.302;2022-11-20T00:50:53;94817.09;;;14.65;62.56
70072;BME280;57434;42.794;23.302;2022-11-20T00:53:20;94821.41;;;14.52;65.42
70072;BME280;57434;42.794;23.302;2022-11-20T00:56:03;94994.56;;;15.51;64.93
70072;BME280;57434;42.794;23.302;2022-11-20T00:58:36;94867.28;;;14.59;64.91
70072;BME280;57434;42.794;23.302;2022-11-20T01:03:36;94991.50;;;15.68;64.17
70072;BME280;57434;42.794;23.302;2022-11-20T01:06:07;94984.31;;;15.80;64.81
70072;BME280;57434;42.794;23.302;2022-11-20T01:08:35;95000.50;;;15.79;64.93
70072;BME280;57434;42.794;23.302;2022-11-20T01:11:06;94818.63;;;14.34;65.58
70072;BME280;57434;42.794;23.302;2022-11-20T01:13:35;94811.59;;;14.40;65.53
70072;BME280;57434;42.794;23.302;2022-11-20T01:16:07;94852.31;;;14.77;64.09
70072;BME280;57434;42.794;23.302;2022-11-20T01:18:37;94986.47;;;15.87;64.52
70072;BME280;57434;42.794;23.302;2022-11-20T01:21:08;94809.53;;;14.41;65.08
70072;BME280;57434;42.794;23.302;2022-11-20T01:23:39;94746.06;;;14.02;65.04
70072;BME280;57434;42.794;23.302;2022-11-20T01:26:10;94951.44;;;15.77;63.08
70072;BME280;57434;42.794;23.302;2022-11-20T01:28:38;94976.22;;;16.23;62.04
70072;BME280;57434;42.794;23.302;2022-11-20T01:31:23;94976.22;;;16.23;62.56
70072;BME280;57434;42.794;23.302;2022-11-20T01:33:52;94949.69;;;15.74;64.27
70072;BME280;57434;42.794;23.302;2022-11-20T01:36:21;94955.81;;;15.65;66.42
70072;BME280;57434;42.794;23.302;2022-11-20T01:38:57;94839.09;;;14.53;65.24
70072;BME280;57434;42.794;23.302;2022-11-20T01:41:26;94859.41;;;14.97;65.38
70072;BME280;57434;42.794;23.302;2022-11-20T01:43:53;94871.94;;;14.69;67.54
70072;BME280;57434;42.794;23.302;2022-11-20T01:46:20;94853.47;;;14.68;66.27
70072;BME280;57434;42.794;23.302;2022-11-20T01:51:35;94787.69;;;14.28;67.70
70072;BME280;57434;42.794;23.302;2022-11-20T01:54:19;94867.09;;;14.51;68.57
70072;BME280;57434;42.794;23.302;2022-11-20T01:56:51;94969.72;;;15.17;68.15
70072;BME280;57434;42.794;23.302;2022-11-20T01:59:23;94879.97;;;14.65;67.68
70072;BME280;57434;42.794;23.302;2022-11-20T02:01:51;94967.56;;;15.23;67.61
70072;BME280;57434;42.794;23.302;2022-11-20T02:04:18;94848.34;;;14.35;68.83
70072;BME280;57434;42.794;23.302;2022-11-20T02:06:56;94833.84;;;14.12;68.37
70072;BME280;57434;42.794;23.302;2022-11-20T02:09:25;94775.34;;;13.80;69.51
70072;BME280;57434;42.794;23.302;2022-11-20T02:11:53;94830.91;;;14.04;69.73
70072;BME280;57434;42.794;23.302;2022-11-20T02:14:21;94811.34;;;14.57;64.33
70072;BME280;57434;42.794;23.302;2022-11-20T02:16:49;94977.34;;;15.68;64.39
70072;BME280;57434;42.794;23.302;2022-11-20T02:22:04;94949.56;;;16.06;62.45
70072;BME280;57434;42.794;23.302;2022-11-20T02:24:34;94833.78;;;15.21;62.74
70072;BME280;57434;42.794;23.302;2022-11-20T02:29:32;94946.31;;;16.02;62.55
70072;BME280;57434;42.794;23.302;2022-11-20T02:32:01;94982.88;;;16.13;62.17
70072;BME280;57434;42.794;23.302;2022-11-20T02:34:29;94961.56;;;15.99;63.21
70072;BME280;57434;42.794;23.302;2022-11-20T02:36:56;94801.94;;;14.94;62.32
70072;BME280;57434;42.794;23.302;2022-11-20T02:39:25;94841.25;;;14.92;62.83
70072;BME280;57434;42.794;23.302;2022-11-20T02:41:55;94977.13;;;15.79;64.46
70072;BME280;57434;42.794;23.302;2022-11-20T02:44:22;94891.31;;;14.91;64.51
70072;BME280;57434;42.794;23.302;2022-11-20T02:46:49;94860.75;;;14.64;64.76
70072;BME280;57434;42.794;23.302;2022-11-20T02:49:16;94876.56;;;14.99;62.97
70072;BME280;57434;42.794;23.302;2022-11-20T02:51:43;94976.25;;;15.71;64.38
70072;BME280;57434;42.794;23.302;2022-11-20T02:54:11;94899.09;;;14.72;65.23
70072;BME280;57434;42.794;23.302;2022-11-20T02:56:38;94895.16;;;14.62;66.17
70072;BME280;57434;42.794;23.302;2022-11-20T02:59:05;94842.28;;;14.31;66.41
70072;BME280;57434;42.794;23.302;2022-11-20T03:01:32;94825.69;;;14.08;65.51
70072;BME280;57434;42.794;23.302;2022-11-20T03:03:59;94912.53;;;14.66;65.14
70072;BME280;57434;42.794;23.302;2022-11-20T03:06:26;94862.16;;;14.38;64.86
70072;BME280;57434;42.794;23.302;2022-11-20T03:08:53;94796.22;;;13.90;64.67
70072;BME280;57434;42.794;23.302;2022-11-20T03:11:20;94890.06;;;14.42;65.10
70072;BME280;57434;42.794;23.302;2022-11-20T03:13:47;94920.09;;;14.90;64.96
70072;BME280;57434;42.794;23.302;2022-11-20T03:16:16;94843.38;;;14.41;64.20
70072;BME280;57434;42.794;23.302;2022-11-20T03:18:44;94914.50;;;15.03;63.84
70072;BME280;57434;42.794;23.302;2022-11-20T03:21:12;94991.91;;;15.72;64.48
70072;BME280;57434;42.794;23.302;2022-11-20T03:23:40;95016.28;;;15.75;64.51
70072;BME280;57434;42.794;23.302;2022-11-20T03:26:12;95025.00;;;15.90;63.96
70072;BME280;57434;42.794;23.302;2022-11-20T03:28:39;94895.09;;;15.13;63.78
70072;BME280;57434;42.794;23.302;2022-11-20T03:31:12;94920.69;;;15.02;64.36
70072;BME280;57434;42.794;23.302;2022-11-20T03:33:40;95038.72;;;15.86;64.61
70072;BME280;57434;42.794;23.302;2022-11-20T03:36:10;95039.13;;;15.77;65.03
70072;BME280;57434;42.794;23.302;2022-11-20T03:38:37;95004.59;;;15.52;63.57
70072;BME280;57434;42.794;23.302;2022-11-20T03:41:10;94960.25;;;15.15;64.29
70072;BME280;57434;42.794;23.302;2022-11-20T03:43:38;94995.19;;;15.31;65.48
70072;BME280;57434;42.794;23.302;2022-11-20T03:46:06;94988.19;;;14.86;66.33
70072;BME280;57434;42.794;23.302;2022-11-20T03:48:33;95087.31;;;15.39;67.06
70072;BME280;57434;42.794;23.302;2022-11-20T03:53:38;94936.69;;;14.30;69.51
70072;BME280;57434;42.794;23.302;2022-11-20T03:56:06;95069.03;;;14.89;71.17
70072;BME280;57434;42.794;23.302;2022-11-20T03:58:38;95029.22;;;14.74;72.15
70072;BME280;57434;42.794;23.302;2022-11-20T04:01:10;95030.59;;;14.68;72.51
70072;BME280;57434;42.794;23.302;2022-11-20T04:03:38;95033.38;;;14.49;74.13
70072;BME280;57434;42.794;23.302;2022-11-20T04:06:08;95032.94;;;14.45;73.66
70072;BME280;57434;42.794;23.302;2022-11-20T04:08:36;95029.94;;;14.37;75.31
70072;BME280;57434;42.794;23.302;2022-11-20T04:11:23;95012.25;;;14.18;73.34
70072;BME280;57434;42.794;23.302;2022-11-20T04:13:52;94910.19;;;13.57;73.14
70072;BME280;57434;42.794;23.302;2022-11-20T04:16:21;95021.41;;;14.43;74.13
70072;BME280;57434;42.794;23.302;2022-11-20T04:18:53;94890.97;;;13.56;72.09
70072;BME280;57434;42.794;23.302;2022-11-20T04:21:21;94977.94;;;14.70;69.53
70072;BME280;57434;42.794;23.302;2022-11-20T04:23:48;94763.16;;;13.91;64.80
70072;BME280;57434;42.794;23.302;2022-11-20T04:26:16;94873.69;;;14.72;64.00
70072;BME280;57434;42.794;23.302;2022-11-20T04:28:43;94840.16;;;14.82;63.74
70072;BME280;57434;42.794;23.302;2022-11-20T04:31:15;94833.88;;;15.02;61.44
70072;BME280;57434;42.794;23.302;2022-11-20T04:33:42;94871.19;;;15.40;59.44
70072;BME280;57434;42.794;23.302;2022-11-20T04:36:18;94995.78;;;16.35;60.50
70072;BME280;57434;42.794;23.302;2022-11-20T04:38:45;94876.38;;;15.23;60.62
70072;BME280;57434;42.794;23.302;2022-11-20T04:41:19;94847.16;;;15.34;58.77
70072;BME280;57434;42.794;23.302;2022-11-20T04:43:51;94960.75;;;16.24;59.01
70072;BME280;57434;42.794;23.302;2022-11-20T04:46:20;94833.56;;;15.58;58.07
70072;BME280;57434;42.794;23.302;2022-11-20T04:48:47;94999.78;;;16.66;58.61
70072;BME280;57434;42.794;23.302;2022-11-20T04:51:14;94999.16;;;16.46;59.71
70072;BME280;57434;42.794;23.302;2022-11-20T04:53:42;94785.28;;;14.64;60.50
70072;BME280;57434;42.794;23.302;2022-11-20T04:56:10;94996.44;;;16.41;59.71
70072;BME280;57434;42.794;23.302;2022-11-20T04:58:37;95002.34;;;16.30;60.58
70072;BME280;57434;42.794;23.302;2022-11-20T05:01:31;94984.63;;;16.16;60.70
70072;BME280;57434;42.794;23.302;2022-11-20T05:03:58;94853.47;;;15.40;60.42
70072;BME280;57434;42.794;23.302;2022-11-20T05:06:25;94896.50;;;15.59;59.73
70072;BME280;57434;42.794;23.302;2022-11-20T05:08:51;94889.00;;;15.48;60.40
70072;BME280;57434;42.794;23.302;2022-11-20T05:11:20;94934.69;;;15.92;60.91
70072;BME280;57434;42.794;23.302;2022-11-20T05:13:49;94926.31;;;15.73;61.56
70072;BME280;57434;42.794;23.302;2022-11-20T05:16:19;94869.75;;;15.20;61.69
70072;BME280;57434;42.794;23.302;2022-11-20T05:18:46;94960.69;;;16.04;60.87
70072;BME280;57434;42.794;23.302;2022-11-20T05:21:14;94975.59;;;16.04;61.49
70072;BME280;57434;42.794;23.302;2022-11-20T05:23:42;94882.66;;;15.03;63.40
70072;BME280;57434;42.794;23.302;2022-11-20T05:26:13;94980.88;;;16.34;58.30
70072;BME280;57434;42.794;23.302;2022-11-20T05:28:41;94894.44;;;15.59;61.06
70072;BME280;57434;42.794;23.302;2022-11-20T05:31:13;94874.75;;;15.14;62.06
70072;BME280;57434;42.794;23.302;2022-11-20T05:33:41;94872.53;;;14.94;62.22
70072;BME280;57434;42.794;23.302;2022-11-20T05:36:09;94870.47;;;14.81;63.85
70072;BME280;57434;42.794;23.302;2022-11-20T05:38:37;94973.59;;;15.46;66.03
70072;BME280;57434;42.794;23.302;2022-11-20T05:41:15;94993.16;;;15.44;64.35
70072;BME280;57434;42.794;23.302;2022-11-20T05:43:44;94967.47;;;15.29;66.52
70072;BME280;57434;42.794;23.302;2022-11-20T05:46:14;94996.94;;;15.34;65.24
70072;BME280;57434;42.794;23.302;2022-11-20T05:48:42;94827.22;;;14.09;65.03
70072;BME280;57434;42.794;23.302;2022-11-20T05:51:12;94846.41;;;14.30;65.79
70072;BME280;57434;42.794;23.302;2022-11-20T05:53:39;95046.63;;;15.42;64.68
70072;BME280;57434;42.794;23.302;2022-11-20T05:56:16;95015.00;;;15.44;64.58
70072;BME280;57434;42.794;23.302;2022-11-20T05:58:44;94971.63;;;15.41;64.54
70072;BME280;57434;42.794;23.302;2022-11-20T06:03:43;94921.22;;;15.00;62.88
70072;BME280;57434;42.794;23.302;2022-11-20T06:06:11;95002.44;;;15.71;63.10
70072;BME280;57434;42.794;23.302;2022-11-20T06:08:38;94791.69;;;14.33;63.03
70072;BME280;57434;42.794;23.302;2022-11-20T06:11:07;94991.56;;;15.62;64.66
70072;BME280;57434;42.794;23.302;2022-11-20T06:13:35;94990.97;;;15.37;66.47
70072;BME280;57434;42.794;23.302;2022-11-20T06:16:08;94870.94;;;14.35;65.07
70072;BME280;57434;42.794;23.302;2022-11-20T06:18:34;94845.09;;;14.31;64.61
70072;BME280;57434;42.794;23.302;2022-11-20T06:21:03;94991.44;;;15.54;65.51
70072;BME280;57434;42.794;23.302;2022-11-20T06:23:31;94956.50;;;15.25;64.84
70072;BME280;57434;42.794;23.302;2022-11-20T06:26:04;94997.75;;;15.61;64.60
70072;BME280;57434;42.794;23.302;2022-11-20T06:28:31;94969.44;;;15.47;65.38
70072;BME280;57434;42.794;23.302;2022-11-20T06:30:58;94753.22;;;14.03;64.53
70072;BME280;57434;42.794;23.302;2022-11-20T06:33:25;94876.06;;;14.68;65.09
70072;BME280;57434;42.794;23.302;2022-11-20T06:35:56;94989.00;;;15.45;67.19
70072;BME280;57434;42.794;23.302;2022-11-20T06:38:28;94987.25;;;15.29;68.95
70072;BME280;57434;42.794;23.302;2022-11-20T06:40:55;95000.72;;;15.23;69.06
70072;BME280;57434;42.794;23.302;2022-11-20T06:43:23;94862.66;;;14.23;68.83
70072;BME280;57434;42.794;23.302;2022-11-20T06:45:53;95020.81;;;15.19;67.25
70072;BME280;57434;42.794;23.302;2022-11-20T06:48:21;95001.63;;;15.31;68.58
70072;BME280;57434;42.794;23.302;2022-11-20T06:50:48;95040.94;;;15.29;69.07
70072;BME280;57434;42.794;23.302;2022-11-20T06:53:15;94905.47;;;14.41;70.05
70072;BME280;57434;42.794;23.302;2022-11-20T06:55:43;94816.50;;;13.70;70.78
70072;BME280;57434;42.794;23.302;2022-11-20T06:58:10;94882.97;;;14.03;71.16
70072;BME280;57434;42.794;23.302;2022-11-20T07:00:37;94782.03;;;13.40;69.98
70072;BME280;57434;42.794;23.302;2022-11-20T07:03:05;94930.66;;;14.57;69.48
70072;BME280;57434;42.794;23.302;2022-11-20T07:05:33;94820.16;;;13.84;70.33
70072;BME280;57434;42.794;23.302;2022-11-20T07:07:59;94959.31;;;14.62;70.67
70072;BME280;57434;42.794;23.302;2022-11-20T07:10:27;94920.72;;;14.32;70.33
70072;BME280;57434;42.794;23.302;2022-11-20T07:12:54;95021.78;;;15.22;69.74
70072;BME280;57434;42.794;23.302;2022-11-20T07:15:23;95040.34;;;15.17;70.49
70072;BME280;57434;42.794;23.302;2022-11-20T07:17:50;94947.28;;;14.42;70.73
70072;BME280;57434;42.794;23.302;2022-11-20T07:20:17;94959.00;;;14.46;70.37
70072;BME280;57434;42.794;23.302;2022-11-20T07:22:44;94942.09;;;14.28;70.67
70072;BME280;57434;42.794;23.302;2022-11-20T07:25:11;94921.34;;;14.06;71.62
70072;BME280;57434;42.794;23.302;2022-11-20T07:27:39;94857.84;;;13.43;71.79
70072;BME280;57434;42.794;23.302;2022-11-20T07:30:07;94962.06;;;14.48;71.20
70072;BME280;57434;42.794;23.302;2022-11-20T07:32:35;94961.09;;;14.27;71.75
70072;BME280;57434;42.794;23.302;2022-11-20T07:35:02;95002.81;;;14.72;72.23
70072;BME280;57434;42.794;23.302;2022-11-20T07:37:30;94877.44;;;13.54;71.91
70072;BME280;57434;42.794;23.302;2022-11-20T07:39:57;94937.31;;;14.04;71.97
70072;BME280;57434;42.794;23.302;2022-11-20T07:42:25;94818.25;;;13.54;69.97
70072;BME280;57434;42.794;23.302;2022-11-20T07:44:52;94938.78;;;14.80;67.25
70072;BME280;57434;42.794;23.302;2022-11-20T07:47:20;94973.38;;;14.99;68.38
70072;BME280;57434;42.794;23.302;2022-11-20T07:49:48;94911.88;;;14.41;68.98
70072;BME280;57434;42.794;23.302;2022-11-20T07:52:15;94906.56;;;14.56;68.43
70072;BME280;57434;42.794;23.302;2022-11-20T07:54:44;94886.75;;;14.24;68.67
70072;BME280;57434;42.794;23.302;2022-11-20T07:57:13;94923.94;;;14.42;69.21
70072;BME280;57434;42.794;23.302;2022-11-20T07:59:40;94962.38;;;14.64;69.51
70072;BME280;57434;42.794;23.302;2022-11-20T08:02:12;94897.50;;;14.07;69.56
70072;BME280;57434;42.794;23.302;2022-11-20T08:04:40;94924.16;;;14.44;69.75
70072;BME280;57434;42.794;23.302;2022-11-20T08:07:09;95092.44;;;15.22;69.74
70072;BME280;57434;42.794;23.302;2022-11-20T08:09:37;95042.69;;;15.00;69.23
70072;BME280;57434;42.794;23.302;2022-11-20T08:12:05;94969.78;;;14.48;69.69
70072;BME280;57434;42.794;23.302;2022-11-20T08:14:33;95019.22;;;14.73;70.30
70072;BME280;57434;42.794;23.302;2022-11-20T08:17:01;94955.56;;;14.35;70.33
70072;BME280;57434;42.794;23.302;2022-11-20T08:19:29;94897.81;;;14.04;70.67
70072;BME280;57434;42.794;23.302;2022-11-20T08:21:57;94819.69;;;13.61;70.99
70072;BME280;57434;42.794;23.302;2022-11-20T08:24:25;95058.56;;;15.03;71.70
70072;BME280;57434;42.794;23.302;2022-11-20T08:26:53;94977.25;;;14.45;72.17
70072;BME280;57434;42.794;23.302;2022-11-20T08:29:21;95046.91;;;14.94;72.07
70072;BME280;57434;42.794;23.302;2022-11-20T08:31:49;94955.75;;;14.23;71.51
70072;BME280;57434;42.794;23.302;2022-11-20T08:34:17;94870.13;;;13.65;71.49
70072;BME280;57434;42.794;23.302;2022-11-20T08:36:46;95028.00;;;14.70;72.28
70072;BME280;57434;42.794;23.302;2022-11-20T08:39:16;94931.63;;;13.85;71.67
70072;BME280;57434;42.794;23.302;2022-11-20T08:41:46;94924.56;;;13.97;71.16
70072;BME280;57434;42.794;23.302;2022-11-20T08:44:14;95090.78;;;15.13;71.97
70072;BME280;57434;42.794;23.302;2022-11-20T08:46:43;94965.88;;;14.13;72.90
70072;BME280;57434;42.794;23.302;2022-11-20T08:49:12;95014.81;;;14.59;70.08
70072;BME280;57434;42.794;23.302;2022-11-20T08:51:41;95032.19;;;14.82;71.33
70072;BME280;57434;42.794;23.302;2022-11-20T08:54:11;94823.13;;;13.30;72.01
70072;BME280;57434;42.794;23.302;2022-11-20T08:56:39;94924.00;;;13.80;72.33
70072;BME280;57434;42.794;23.302;2022-11-20T08:59:07;95007.81;;;14.22;73.54
70072;BME280;57434;42.794;23.302;2022-11-20T09:01:57;94854.94;;;13.24;74.99
70072;BME280;57434;42.794;23.302;2022-11-20T09:04:26;95014.94;;;14.05;76.02
70072;BME280;57434;42.794;23.302;2022-11-20T09:06:55;94922.22;;;13.34;77.46
70072;BME280;57434;42.794;23.302;2022-11-20T09:09:25;95009.66;;;13.77;77.50
70072;BME280;57434;42.794;23.302;2022-11-20T09:11:52;94970.97;;;13.23;78.99
70072;BME280;57434;42.794;23.302;2022-11-20T09:14:20;95019.47;;;13.40;79.76
70072;BME280;57434;42.794;23.302;2022-11-20T09:16:49;95148.41;;;14.18;81.29
70072;BME280;57434;42.794;23.302;2022-11-20T09:19:17;95025.56;;;13.20;82.11
70072;BME280;57434;42.794;23.302;2022-11-20T09:22:03;94944.22;;;12.81;81.59
70072;BME280;57434;42.794;23.302;2022-11-20T09:24:31;95135.13;;;14.13;81.52
70072;BME280;57434;42.794;23.302;2022-11-20T09:27:02;95136.94;;;14.11;81.34
70072;BME280;57434;42.794;23.302;2022-11-20T09:29:31;95012.59;;;13.41;80.06
70072;BME280;57434;42.794;23.302;2022-11-20T09:32:00;95103.22;;;14.00;80.32
70072;BME280;57434;42.794;23.302;2022-11-20T09:34:28;95099.63;;;14.23;81.16
70072;BME280;57434;42.794;23.302;2022-11-20T09:36:56;95013.53;;;13.49;80.91
70072;BME280;57434;42.794;23.302;2022-11-20T09:39:30;94978.97;;;13.49;79.22
70072;BME280;57434;42.794;23.302;2022-11-20T09:47:56;95078.56;;;14.68;77.38
70072;BME280;57434;42.794;23.302;2022-11-20T09:50:57;94914.94;;;13.68;76.34
70072;BME280;57434;42.794;23.302;2022-11-20T09:54:25;95078.28;;;14.71;77.39
70072;BME280;57434;42.794;23.302;2022-11-20T09:56:59;95081.78;;;14.77;77.60
70072;BME280;57434;42.794;23.302;2022-11-20T10:05:15;95049.78;;;14.88;78.57
70072;BME280;57434;42.794;23.302;2022-11-20T10:07:52;94915.88;;;13.76;77.66
70072;BME280;57434;42.794;23.302;2022-11-20T10:21:38;95024.25;;;14.80;75.61
70072;BME280;57434;42.794;23.302;2022-11-20T10:24:34;95020.78;;;14.87;73.77
70072;BME280;57434;42.794;23.302;2022-11-20T10:27:21;95015.59;;;14.91;74.26
70072;BME280;57434;42.794;23.302;2022-11-20T10:30:21;95023.19;;;14.83;74.58
70072;BME280;57434;42.794;23.302;2022-11-20T10:32:53;95046.34;;;14.95;73.76
70072;BME280;57434;42.794;23.302;2022-11-20T10:35:23;95030.19;;;14.96;74.11
70072;BME280;57434;42.794;23.302;2022-11-20T10:38:00;94971.38;;;14.43;73.91
70072;BME280;57434;42.794;23.302;2022-11-20T10:45:53;95036.97;;;14.87;76.37
70072;BME280;57434;42.794;23.302;2022-11-20T10:48:27;95035.78;;;14.82;77.62
70072;BME280;57434;42.794;23.302;2022-11-20T10:51:04;95026.16;;;14.72;78.36
70072;BME280;57434;42.794;23.302;2022-11-20T10:53:47;95015.47;;;14.65;78.20
70072;BME280;57434;42.794;23.302;2022-11-20T10:58:54;95022.56;;;14.53;79.41
70072;BME280;57434;42.794;23.302;2022-11-20T11:01:25;94973.41;;;13.86;81.40
70072;BME280;57434;42.794;23.302;2022-11-20T11:03:55;95082.00;;;13.69;82.52
70072;BME280;57434;42.794;23.302;2022-11-20T11:06:36;94918.81;;;12.21;82.31
70072;BME280;57434;42.794;23.302;2022-11-20T11:09:16;94970.22;;;12.16;82.12
70072;BME280;57434;42.794;23.302;2022-11-20T11:11:47;94808.31;;;11.03;83.26
70072;BME280;57434;42.794;23.302;2022-11-20T11:14:16;94974.53;;;12.23;83.25
70072;BME280;57434;42.794;23.302;2022-11-20T11:16:55;94955.75;;;11.95;83.98
70072;BME280;57434;42.794;23.302;2022-11-20T11:19:24;95031.94;;;12.49;85.05
70072;BME280;57434;42.794;23.302;2022-11-20T11:21:56;94932.63;;;11.67;84.00
70072;BME280;57434;42.794;23.302;2022-11-20T11:24:29;95028.38;;;12.43;84.47
70072;BME280;57434;42.794;23.302;2022-11-20T11:27:14;94948.78;;;11.55;82.53
70072;BME280;57434;42.794;23.302;2022-11-20T11:29:44;95068.59;;;12.33;82.72
70072;BME280;57434;42.794;23.302;2022-11-20T11:32:20;95064.25;;;12.32;83.01
70072;BME280;57434;42.794;23.302;2022-11-20T11:35:05;95046.91;;;12.16;83.52
70072;BME280;57434;42.794;23.302;2022-11-20T11:37:36;95071.94;;;12.26;83.07
70072;BME280;57434;42.794;23.302;2022-11-20T11:40:08;94912.38;;;11.22;82.68
70072;BME280;57434;42.794;23.302;2022-11-20T11:42:59;94874.38;;;11.04;81.77
70072;BME280;57434;42.794;23.302;2022-11-20T11:45:28;94942.16;;;11.41;82.48
70072;BME280;57434;42.794;23.302;2022-11-20T11:48:01;95114.63;;;12.35;81.54
70072;BME280;57434;42.794;23.302;2022-11-20T11:50:31;95067.41;;;12.00;82.54
70072;BME280;57434;42.794;23.302;2022-11-20T11:58:47;95073.69;;;12.34;82.55
70072;BME280;57434;42.794;23.302;2022-11-20T12:06:45;95091.38;;;12.24;82.54
70072;BME280;57434;42.794;23.302;2022-11-20T12:09:18;95097.00;;;12.24;84.58
70072;BME280;57434;42.794;23.302;2022-11-20T12:11:58;95086.72;;;12.37;86.68
70072;BME280;57434;42.794;23.302;2022-11-20T12:14:37;95095.44;;;12.34;87.80
70072;BME280;57434;42.794;23.302;2022-11-20T12:17:11;95018.50;;;11.57;88.82
70072;BME280;57434;42.794;23.302;2022-11-20T12:19:40;94992.69;;;11.58;89.02
70072;BME280;57434;42.794;23.302;2022-11-20T12:22:19;95080.63;;;12.28;90.74
70072;BME280;57434;42.794;23.302;2022-11-20T12:31:05;95079.91;;;12.16;86.05
70072;BME280;57434;42.794;23.302;2022-11-20T12:33:42;95084.16;;;12.39;83.98
70072;BME280;57434;42.794;23.302;2022-11-20T12:36:27;95062.50;;;12.23;84.07
70072;BME280;57434;42.794;23.302;2022-11-20T12:39:24;95069.75;;;12.60;82.06
70072;BME280;57434;42.794;23.302;2022-11-20T12:42:43;95044.16;;;12.58;81.40
70072;BME280;57434;42.794;23.302;2022-11-20T12:57:14;95036.56;;;12.41;83.98
70072;BME280;57434;42.794;23.302;2022-11-20T13:00:20;95023.78;;;12.40;86.16
70072;BME280;57434;42.794;23.302;2022-11-20T13:03:28;95023.34;;;12.31;87.73
70072;BME280;57434;42.794;23.302;2022-11-20T13:06:16;95028.97;;;12.31;89.00
70072;BME280;57434;42.794;23.302;2022-11-20T13:08:57;94918.66;;;11.44;88.24
70072;BME280;57434;42.794;23.302;2022-11-20T13:11:36;95011.94;;;12.06;88.63
70072;BME280;57434;42.794;23.302;2022-11-20T13:14:19;95032.06;;;12.27;89.56
70072;BME280;57434;42.794;23.302;2022-11-20T13:17:00;94871.06;;;11.05;89.81
70072;BME280;57434;42.794;23.302;2022-11-20T13:19:33;94798.69;;;10.70;90.21
70072;BME280;57434;42.794;23.302;2022-11-20T13:22:02;94881.31;;;10.92;87.74
70072;BME280;57434;42.794;23.302;2022-11-20T13:24:31;95030.50;;;12.32;86.35
70072;BME280;57434;42.794;23.302;2022-11-20T13:29:45;94910.75;;;11.43;88.24
70072;BME280;57434;42.794;23.302;2022-11-20T13:32:15;95005.78;;;12.08;88.91
70072;BME280;57434;42.794;23.302;2022-11-20T13:37:38;94925.03;;;11.56;89.06
70072;BME280;57434;42.794;23.302;2022-11-20T13:42:54;95024.47;;;12.05;89.38
70072;BME280;57434;42.794;23.302;2022-11-20T13:45:27;94899.78;;;11.39;89.30
70072;BME280;57434;42.794;23.302;2022-11-20T13:47:57;94874.59;;;11.23;87.50
70072;BME280;57434;42.794;23.302;2022-11-20T13:50:55;94980.53;;;11.97;87.09
70072;BME280;57434;42.794;23.302;2022-11-20T13:59:37;94888.22;;;11.60;83.42
70072;BME280;57434;42.794;23.302;2022-11-20T14:02:01;94848.69;;;11.46;84.93
70072;BME280;57434;42.794;23.302;2022-11-20T14:04:33;95005.16;;;12.37;83.79
70072;BME280;57434;42.794;23.302;2022-11-20T14:07:05;94913.78;;;11.56;83.88
70072;BME280;57434;42.794;23.302;2022-11-20T14:09:34;95018.47;;;12.31;84.19
70072;BME280;57434;42.794;23.302;2022-11-20T14:12:03;94997.78;;;12.29;83.52
70072;BME280;57434;42.794;23.302;2022-11-20T14:14:33;94992.03;;;11.99;83.62
70072;BME280;57434;42.794;23.302;2022-11-20T14:17:28;94855.72;;;11.12;84.21
70072;BME280;57434;42.794;23.302;2022-11-20T14:19:59;94998.13;;;12.08;83.42
70072;BME280;57434;42.794;23.302;2022-11-20T14:22:29;94923.94;;;11.65;82.26
70072;BME280;57434;42.794;23.302;2022-11-20T14:25:20;94885.06;;;11.22;81.64
70072;BME280;57434;42.794;23.302;2022-11-20T14:28:01;94972.16;;;11.85;82.39
70072;BME280;57434;42.794;23.302;2022-11-20T14:30:50;94980.59;;;11.80;83.55
70072;BME280;57434;42.794;23.302;2022-11-20T14:33:19;95013.50;;;11.96;83.83
70072;BME280;57434;42.794;23.302;2022-11-20T14:35:49;94842.03;;;10.80;82.61
70072;BME280;57434;42.794;23.302;2022-11-20T14:38:22;94885.84;;;11.06;80.85
70072;BME280;57434;42.794;23.302;2022-11-20T14:40:52;94811.69;;;10.62;82.78
70072;BME280;57434;42.794;23.302;2022-11-20T14:43:28;94795.13;;;10.64;83.12